createdAt,value
2018-07-27T00:01:30.458Z,23.80
2018-07-27T00:03:59.138Z,23.80
2018-07-27T00:06:27.769Z,23.70
2018-07-27T00:08:56.661Z,23.60
2018-07-27T00:11:25.260Z,23.50
2018-07-27T00:13:53.863Z,23.50
2018-07-27T00:16:22.629Z,23.40
2018-07-27T00:18:52.835Z,23.40
2018-07-27T00:21:21.678Z,23.40
2018-07-27T00:23:50.660Z,23.30
2018-07-27T00:26:19.429Z,23.30
2018-07-27T00:28:48.149Z,23.30
2018-07-27T00:31:16.909Z,23.30
2018-07-27T00:33:45.632Z,23.30
2018-07-27T00:36:14.205Z,23.20
2018-07-27T00:38:42.863Z,23.20
2018-07-27T00:41:11.585Z,23.20
2018-07-27T00:43:40.237Z,23.20
2018-07-27T00:46:08.843Z,23.20
2018-07-27T00:48:38.623Z,23.10
2018-07-27T00:51:07.198Z,23.10
2018-07-27T00:53:36.000Z,23.10
2018-07-27T00:56:04.717Z,23.20
2018-07-27T00:58:33.605Z,23.20
2018-07-27T01:01:02.403Z,23.30
2018-07-27T01:03:31.765Z,23.30
2018-07-27T01:06:00.625Z,23.30
2018-07-27T01:08:29.361Z,23.30
2018-07-27T01:10:57.985Z,23.30
2018-07-27T01:13:26.614Z,23.40
2018-07-27T01:15:55.420Z,23.40
2018-07-27T01:18:24.023Z,23.30
2018-07-27T01:20:52.582Z,23.30
2018-07-27T01:23:21.988Z,23.30
2018-07-27T01:25:50.672Z,23.30
2018-07-27T01:31:18.677Z,23.20
2018-07-27T01:33:48.270Z,23.10
2018-07-27T01:38:45.336Z,23.10
2018-07-27T01:41:14.542Z,23.20
2018-07-27T01:43:43.109Z,23.20
2018-07-27T01:46:11.768Z,23.20
2018-07-27T01:48:40.409Z,23.20
2018-07-27T01:51:09.040Z,23.20
2018-07-27T01:53:37.586Z,23.20
2018-07-27T01:56:06.240Z,23.20
2018-07-27T01:58:35.001Z,23.30
2018-07-27T02:01:03.663Z,23.30
2018-07-27T02:03:32.267Z,23.30
2018-07-27T02:06:01.026Z,23.30
2018-07-27T02:08:29.553Z,23.30
2018-07-27T02:13:26.414Z,23.30
2018-07-27T02:15:55.222Z,23.30
2018-07-27T02:18:23.851Z,23.40
2018-07-27T02:20:54.373Z,23.40
2018-07-27T02:23:23.012Z,23.50
2018-07-27T02:25:51.619Z,23.50
2018-07-27T02:28:20.285Z,23.60
2018-07-27T02:30:48.886Z,23.60
2018-07-27T02:33:17.487Z,23.50
2018-07-27T02:35:46.075Z,23.50
2018-07-27T02:38:14.922Z,23.50
2018-07-27T02:40:43.628Z,23.50
2018-07-27T02:43:12.532Z,23.40
2018-07-27T02:45:41.290Z,23.40
2018-07-27T02:48:09.943Z,23.30
2018-07-27T02:50:38.563Z,23.30
2018-07-27T02:53:07.241Z,23.40
2018-07-27T02:55:35.878Z,23.30
2018-07-27T02:58:04.545Z,23.30
2018-07-27T03:00:33.178Z,23.30
2018-07-27T03:03:01.801Z,23.30
2018-07-27T03:05:30.443Z,23.30
2018-07-27T03:07:59.021Z,23.30
2018-07-27T03:10:27.704Z,23.30
2018-07-27T03:12:56.312Z,23.30
2018-07-27T03:15:25.327Z,23.20
2018-07-27T03:17:53.952Z,23.20
2018-07-27T03:22:51.513Z,23.20
2018-07-27T03:25:20.194Z,23.00
2018-07-27T03:27:48.780Z,22.90
2018-07-27T03:30:17.374Z,22.80
2018-07-27T03:35:14.202Z,22.70
2018-07-27T03:37:42.898Z,22.60
2018-07-27T03:40:11.537Z,22.60
2018-07-27T03:42:40.093Z,22.50
2018-07-27T03:45:08.711Z,22.50
2018-07-27T03:47:37.393Z,22.50
2018-07-27T03:50:06.236Z,22.50
2018-07-27T03:55:03.346Z,22.30
2018-07-27T03:57:32.314Z,22.40
2018-07-27T04:00:00.898Z,22.50
2018-07-27T04:02:29.524Z,22.60
2018-07-27T04:04:58.114Z,22.70
2018-07-27T04:07:26.764Z,22.80
2018-07-27T04:09:55.757Z,22.80
2018-07-27T04:12:24.950Z,22.80
2018-07-27T04:14:54.694Z,22.80
2018-07-27T04:17:23.252Z,22.80
2018-07-27T04:19:53.278Z,22.70
2018-07-27T04:22:22.961Z,22.70
2018-07-27T04:24:53.190Z,22.70
2018-07-27T04:27:21.768Z,22.70
2018-07-27T04:29:50.429Z,22.70
2018-07-27T04:32:19.092Z,22.80
2018-07-27T04:34:47.649Z,22.80
2018-07-27T04:37:16.250Z,22.70
2018-07-27T04:39:44.803Z,22.80
2018-07-27T04:42:13.421Z,22.80
2018-07-27T04:44:42.019Z,22.80
2018-07-27T04:47:10.663Z,22.80
2018-07-27T04:49:39.233Z,22.80
2018-07-27T04:52:08.097Z,22.80
2018-07-27T04:54:36.738Z,22.80
2018-07-27T04:57:05.673Z,22.80
2018-07-27T04:59:34.319Z,22.80
2018-07-27T05:02:03.001Z,22.80
2018-07-27T05:04:31.679Z,22.90
2018-07-27T05:07:00.253Z,22.90
2018-07-27T05:09:29.852Z,22.90
2018-07-27T05:11:58.470Z,22.90
2018-07-27T05:14:27.198Z,22.90
2018-07-27T05:16:55.844Z,23.00
2018-07-27T05:19:24.408Z,23.00
2018-07-27T05:21:53.002Z,23.00
2018-07-27T05:24:21.739Z,23.00
2018-07-27T05:26:50.349Z,23.10
2018-07-27T05:29:18.978Z,23.10
2018-07-27T05:31:47.613Z,23.10
2018-07-27T05:34:16.296Z,23.10
2018-07-27T05:36:45.059Z,23.10
2018-07-27T05:39:13.678Z,23.10
2018-07-27T05:41:42.306Z,23.20
2018-07-27T05:44:10.895Z,23.20
2018-07-27T05:46:39.598Z,23.20
2018-07-27T05:49:08.362Z,23.20
2018-07-27T05:51:36.930Z,23.20
2018-07-27T05:54:05.692Z,23.30
2018-07-27T05:56:34.584Z,23.30
2018-07-27T05:59:03.503Z,23.40
2018-07-27T06:01:32.212Z,23.40
2018-07-27T06:04:00.852Z,23.50
2018-07-27T06:06:29.484Z,23.50
2018-07-27T06:08:58.748Z,23.70
2018-07-27T06:11:27.420Z,23.70
2018-07-27T06:13:56.080Z,23.80
2018-07-27T06:16:24.679Z,23.80
2018-07-27T06:21:22.702Z,24.00
2018-07-27T06:23:51.301Z,24.00
2018-07-27T06:26:19.950Z,24.10
2018-07-27T06:28:48.590Z,24.20
2018-07-27T06:31:17.268Z,24.30
2018-07-27T06:33:45.914Z,24.30
2018-07-27T06:36:14.483Z,24.40
2018-07-27T06:38:43.074Z,24.50
2018-07-27T06:41:11.739Z,24.60
2018-07-27T06:43:40.503Z,24.90
2018-07-27T06:46:09.107Z,25.00
2018-07-27T06:48:37.786Z,25.20
2018-07-27T06:51:06.511Z,25.60
2018-07-27T06:53:35.229Z,25.70
2018-07-27T06:56:04.189Z,25.70
2018-07-27T06:58:32.767Z,26.10
2018-07-27T07:01:01.344Z,26.10
2018-07-27T07:03:30.020Z,26.20
2018-07-27T07:05:58.920Z,26.40
2018-07-27T07:08:27.596Z,26.70
2018-07-27T07:10:56.224Z,26.90
2018-07-27T07:15:54.428Z,27.30
2018-07-27T07:20:51.390Z,27.40
2018-07-27T07:23:19.938Z,27.60
2018-07-27T07:25:48.815Z,27.80
2018-07-27T07:28:17.318Z,28.00
2018-07-27T07:30:46.070Z,28.20
2018-07-27T07:33:14.742Z,28.30
2018-07-27T07:35:43.509Z,28.20
2018-07-27T07:38:12.315Z,28.30
2018-07-27T07:40:41.115Z,28.40
2018-07-27T07:43:10.022Z,28.60
2018-07-27T07:45:38.593Z,28.60
2018-07-27T07:48:07.767Z,28.70
2018-07-27T07:50:37.149Z,28.70
2018-07-27T07:53:06.327Z,29.00
2018-07-27T07:55:34.899Z,29.10
2018-07-27T07:58:03.561Z,29.20
2018-07-27T08:00:32.409Z,29.30
2018-07-27T08:03:01.055Z,29.20
2018-07-27T08:07:58.305Z,29.30
2018-07-27T08:10:27.155Z,29.60
2018-07-27T08:12:55.943Z,29.50
2018-07-27T08:15:25.043Z,29.50
2018-07-27T08:17:53.762Z,29.70
2018-07-27T08:20:22.343Z,29.80
2018-07-27T08:22:50.954Z,29.80
2018-07-27T08:27:57.168Z,30.00
2018-07-27T08:30:25.905Z,30.00
2018-07-27T08:32:55.172Z,30.00
2018-07-27T08:35:23.758Z,29.90
2018-07-27T08:37:52.801Z,30.00
2018-07-27T08:40:21.411Z,30.10
2018-07-27T08:42:50.004Z,30.20
2018-07-27T08:45:18.571Z,30.10
2018-07-27T08:47:47.131Z,30.10
2018-07-27T08:50:15.672Z,29.90
2018-07-27T08:52:44.525Z,29.90
2018-07-27T08:55:13.146Z,29.90
2018-07-27T08:57:41.835Z,30.00
2018-07-27T09:00:10.512Z,30.00
2018-07-27T09:02:39.128Z,29.90
2018-07-27T09:05:07.814Z,30.00
2018-07-27T09:07:36.357Z,30.30
2018-07-27T09:10:05.274Z,30.50
2018-07-27T09:12:34.000Z,30.40
2018-07-27T09:15:02.896Z,30.50
2018-07-27T09:17:31.524Z,30.40
2018-07-27T09:20:00.140Z,30.30
2018-07-27T09:22:28.717Z,30.40
2018-07-27T09:24:57.444Z,30.50
2018-07-27T09:27:25.979Z,30.50
2018-07-27T09:29:54.721Z,30.70
2018-07-27T09:32:23.430Z,31.00
2018-07-27T09:34:52.141Z,30.90
2018-07-27T09:37:22.401Z,31.00
2018-07-27T09:39:51.073Z,31.30
2018-07-27T09:42:19.819Z,31.20
2018-07-27T09:44:48.527Z,31.30
2018-07-27T09:47:17.131Z,31.20
2018-07-27T09:49:45.739Z,31.30
2018-07-27T09:52:15.186Z,31.40
2018-07-27T09:54:43.923Z,31.50
2018-07-27T09:57:12.500Z,31.70
2018-07-27T09:59:41.261Z,31.80
2018-07-27T10:02:09.995Z,32.00
2018-07-27T10:04:38.612Z,31.90
2018-07-27T10:07:07.643Z,32.10
2018-07-27T10:09:36.382Z,32.30
2018-07-27T10:12:05.122Z,32.70
2018-07-27T10:14:34.383Z,33.00
2018-07-27T10:17:03.003Z,33.20
2018-07-27T10:19:31.624Z,33.20
2018-07-27T10:22:01.255Z,33.20
2018-07-27T10:24:29.854Z,33.30
2018-07-27T10:26:58.542Z,33.30
2018-07-27T10:29:27.448Z,33.50
2018-07-27T10:31:56.645Z,33.50
2018-07-27T10:34:27.678Z,33.50
2018-07-27T10:36:56.745Z,33.50
2018-07-27T10:39:25.382Z,33.60
2018-07-27T10:41:54.074Z,33.80
2018-07-27T10:44:22.923Z,33.70
2018-07-27T10:46:51.685Z,33.60
2018-07-27T10:49:20.292Z,33.80
2018-07-27T10:51:48.917Z,34.10
2018-07-27T10:54:17.559Z,34.10
2018-07-27T10:56:48.395Z,34.10
2018-07-27T10:59:18.024Z,34.10
2018-07-27T11:01:47.643Z,34.00
2018-07-27T11:04:16.462Z,34.10
2018-07-27T11:06:45.406Z,34.00
2018-07-27T11:09:14.131Z,34.10
2018-07-27T11:11:42.811Z,34.20
2018-07-27T11:14:11.382Z,34.20
2018-07-27T11:16:40.019Z,34.20
2018-07-27T11:19:08.982Z,34.10
2018-07-27T11:21:37.721Z,34.00
2018-07-27T11:24:06.352Z,33.90
2018-07-27T11:26:35.297Z,33.90
2018-07-27T11:29:03.871Z,33.80
2018-07-27T11:31:32.541Z,33.60
2018-07-27T11:34:01.192Z,33.40
2018-07-27T11:36:29.822Z,33.50
2018-07-27T11:38:58.443Z,33.40
2018-07-27T11:41:27.079Z,33.60
2018-07-27T11:43:55.756Z,33.50
2018-07-27T11:46:24.416Z,33.60
2018-07-27T11:48:53.564Z,33.50
2018-07-27T11:51:22.779Z,33.30
2018-07-27T11:53:51.391Z,33.30
2018-07-27T11:56:20.188Z,33.50
2018-07-27T11:58:48.876Z,33.60
2018-07-27T12:01:17.518Z,33.60
2018-07-27T12:03:46.175Z,33.70
2018-07-27T12:06:14.922Z,33.70
2018-07-27T12:08:44.715Z,33.90
2018-07-27T12:11:13.682Z,34.00
2018-07-27T12:13:42.520Z,34.10
2018-07-27T12:16:11.276Z,34.10
2018-07-27T12:18:39.991Z,34.10
2018-07-27T12:21:09.781Z,34.10
2018-07-27T12:23:38.378Z,33.90
2018-07-27T12:26:06.989Z,34.20
2018-07-27T12:28:35.529Z,34.20
2018-07-27T12:31:04.265Z,34.30
2018-07-27T12:33:33.026Z,34.20
2018-07-27T12:36:01.671Z,34.00
2018-07-27T12:38:30.290Z,33.90
2018-07-27T12:40:59.806Z,33.80
2018-07-27T12:43:28.417Z,33.60
2018-07-27T12:45:57.257Z,33.60
2018-07-27T12:48:26.389Z,33.50
2018-07-27T12:50:55.893Z,33.50
2018-07-27T12:53:24.526Z,33.40
2018-07-27T12:55:54.329Z,33.60
2018-07-27T13:00:51.377Z,33.80
2018-07-27T13:03:20.106Z,33.80
2018-07-27T13:05:48.852Z,33.80
2018-07-27T13:08:17.510Z,33.80
2018-07-27T13:10:46.139Z,34.00
2018-07-27T13:13:14.686Z,34.10
2018-07-27T13:15:43.281Z,34.10
2018-07-27T13:18:12.787Z,34.30
2018-07-27T13:23:25.867Z,34.60
2018-07-27T13:26:27.867Z,34.70
2018-07-27T13:28:41.979Z,34.70
2018-07-27T13:31:11.437Z,34.80
2018-07-27T13:33:46.804Z,34.90
2018-07-27T13:36:15.399Z,34.90
2018-07-27T13:38:44.255Z,34.80
2018-07-27T13:41:12.917Z,34.60
2018-07-27T13:43:41.612Z,34.50
2018-07-27T13:46:10.245Z,34.70
2018-07-27T13:48:38.842Z,34.70
2018-07-27T13:51:07.453Z,34.80
2018-07-27T13:53:36.061Z,35.00
2018-07-27T13:56:04.836Z,34.90
2018-07-27T13:58:33.550Z,35.00
2018-07-27T14:01:02.482Z,35.10
2018-07-27T14:03:31.166Z,35.00
2018-07-27T14:05:59.926Z,35.00
2018-07-27T14:08:28.589Z,35.10
2018-07-27T14:10:57.342Z,35.00
2018-07-27T14:13:26.006Z,35.00
2018-07-27T14:15:54.584Z,35.20
2018-07-27T14:18:23.169Z,35.30
2018-07-27T14:20:51.818Z,35.30
2018-07-27T14:23:20.614Z,35.30
2018-07-27T14:25:49.265Z,35.40
2018-07-27T14:28:17.920Z,35.30
2018-07-27T14:30:46.732Z,35.30
2018-07-27T14:33:15.329Z,35.20
2018-07-27T14:35:43.949Z,35.20
2018-07-27T14:38:12.621Z,35.10
2018-07-27T14:40:41.221Z,35.10
2018-07-27T14:43:09.780Z,35.10
2018-07-27T14:45:38.501Z,35.00
2018-07-27T14:48:07.135Z,35.00
2018-07-27T14:50:35.783Z,34.90
2018-07-27T14:53:04.497Z,34.80
2018-07-27T14:55:33.065Z,34.50
2018-07-27T14:58:01.690Z,34.40
2018-07-27T15:00:30.339Z,34.30
2018-07-27T15:02:58.941Z,34.30
2018-07-27T15:05:27.597Z,34.10
2018-07-27T15:07:56.401Z,33.90
2018-07-27T15:10:25.088Z,33.70
2018-07-27T15:12:56.766Z,33.70
2018-07-27T15:15:25.353Z,33.70
2018-07-27T15:17:54.034Z,33.50
2018-07-27T15:20:22.676Z,33.50
2018-07-27T15:22:51.356Z,33.40
2018-07-27T15:25:19.935Z,33.40
2018-07-27T15:27:48.553Z,33.10
2018-07-27T15:30:17.237Z,32.90
2018-07-27T15:32:45.829Z,33.10
2018-07-27T15:35:14.446Z,33.00
2018-07-27T15:37:43.097Z,32.70
2018-07-27T15:40:11.759Z,32.30
2018-07-27T15:42:40.414Z,32.20
2018-07-27T15:45:09.055Z,31.90
2018-07-27T15:47:37.671Z,31.50
2018-07-27T15:50:06.715Z,31.20
2018-07-27T15:52:35.394Z,30.90
2018-07-27T15:55:04.118Z,30.60
2018-07-27T15:57:32.765Z,30.20
2018-07-27T16:00:01.474Z,29.80
2018-07-27T16:02:30.055Z,29.60
2018-07-27T16:04:58.677Z,29.10
2018-07-27T16:07:27.536Z,29.00
2018-07-27T16:09:56.229Z,28.60
2018-07-27T16:12:25.078Z,28.20
2018-07-27T16:14:53.926Z,27.90
2018-07-27T16:22:19.213Z,27.60
2018-07-27T16:24:48.692Z,27.40
2018-07-27T16:27:17.485Z,27.40
2018-07-27T16:29:46.226Z,27.30
2018-07-27T16:32:14.939Z,27.20
2018-07-27T16:34:43.818Z,26.90
2018-07-27T16:37:12.462Z,26.90
2018-07-27T16:39:41.121Z,26.90
2018-07-27T16:42:09.707Z,26.80
2018-07-27T16:44:38.274Z,26.80
2018-07-27T16:47:06.882Z,26.80
2018-07-27T16:49:35.471Z,26.80
2018-07-27T16:52:04.234Z,26.70
2018-07-27T16:54:32.847Z,26.70
2018-07-27T16:57:01.726Z,26.70
2018-07-27T16:59:30.339Z,26.60
2018-07-27T17:02:00.775Z,26.50
2018-07-27T17:04:29.405Z,26.50
2018-07-27T17:06:59.009Z,26.50
2018-07-27T17:09:27.954Z,26.50
2018-07-27T17:11:56.867Z,26.40
2018-07-27T17:14:25.512Z,26.40
2018-07-27T17:16:54.111Z,26.50
2018-07-27T17:19:22.759Z,26.50
2018-07-27T17:21:51.387Z,26.40
2018-07-27T17:24:20.020Z,26.40
2018-07-27T17:26:48.560Z,26.40
2018-07-27T17:29:17.178Z,26.30
2018-07-27T17:31:46.460Z,26.30
2018-07-27T17:34:15.045Z,26.40
2018-07-27T17:36:43.759Z,26.30
2018-07-27T17:39:12.562Z,26.30
2018-07-27T17:41:41.256Z,26.20
2018-07-27T17:44:10.447Z,26.20
2018-07-27T17:46:39.182Z,26.10
2018-07-27T17:49:08.497Z,26.00
2018-07-27T17:51:37.145Z,26.10
2018-07-27T17:54:06.097Z,26.00
2018-07-27T17:56:34.680Z,25.90
2018-07-27T17:59:03.537Z,26.00
2018-07-27T18:01:32.322Z,25.90
2018-07-27T18:04:01.238Z,26.00
2018-07-27T18:06:29.821Z,26.00
2018-07-27T18:08:58.997Z,25.80
2018-07-27T18:11:28.979Z,25.70
2018-07-27T18:13:58.348Z,25.70
2018-07-27T18:16:27.124Z,25.70
2018-07-27T18:18:55.924Z,25.70
2018-07-27T18:21:24.592Z,25.70
2018-07-27T18:23:53.532Z,25.70
2018-07-27T18:26:22.184Z,25.80
2018-07-27T18:28:51.184Z,25.70
2018-07-27T18:31:23.252Z,26.10
2018-07-27T18:33:55.018Z,26.40
2018-07-27T18:36:23.864Z,26.70
2018-07-27T18:38:52.495Z,26.90
2018-07-27T18:41:21.116Z,26.90
2018-07-27T18:43:50.247Z,26.90
2018-07-27T18:46:18.847Z,26.50
2018-07-27T18:48:47.427Z,26.30
2018-07-27T18:51:16.098Z,26.00
2018-07-27T18:53:44.684Z,25.90
2018-07-27T18:56:13.304Z,25.70
2018-07-27T18:58:41.875Z,25.80
2018-07-27T19:01:10.903Z,25.70
2018-07-27T19:03:39.779Z,25.80
2018-07-27T19:06:08.958Z,25.80
2018-07-27T19:08:37.655Z,25.90
2018-07-27T19:11:06.677Z,25.80
2018-07-27T19:13:35.536Z,25.70
2018-07-27T19:18:32.395Z,25.40
2018-07-27T19:21:01.039Z,25.30
2018-07-27T19:23:29.685Z,25.20
2018-07-27T19:25:58.687Z,25.20
2018-07-27T19:28:27.288Z,25.10
2018-07-27T19:30:55.957Z,24.90
2018-07-27T19:33:25.361Z,25.00
2018-07-27T19:35:54.216Z,24.80
2018-07-27T19:38:22.833Z,24.80
2018-07-27T19:40:51.389Z,24.90
2018-07-27T19:43:19.957Z,24.90
2018-07-27T19:45:48.593Z,24.60
2018-07-27T19:48:17.417Z,24.40
2018-07-27T19:50:46.061Z,24.30
2018-07-27T19:53:14.918Z,24.20
2018-07-27T19:55:43.484Z,24.10
2018-07-27T19:58:12.093Z,24.00
2018-07-27T20:00:40.931Z,23.90
2018-07-27T20:03:09.499Z,23.90
2018-07-27T20:05:38.426Z,23.90
2018-07-27T20:08:07.441Z,23.90
2018-07-27T20:10:36.679Z,23.60
2018-07-27T20:13:05.511Z,23.50
2018-07-27T20:15:34.185Z,23.50
2018-07-27T20:18:02.771Z,24.10
2018-07-27T20:20:31.482Z,24.00
2018-07-27T20:23:00.047Z,23.90
2018-07-27T20:25:31.525Z,23.80
2018-07-27T20:28:00.166Z,23.80
2018-07-27T20:30:28.953Z,23.60
2018-07-27T20:32:57.565Z,23.50
2018-07-27T20:35:26.330Z,23.60
2018-07-27T20:37:54.972Z,23.70
2018-07-27T20:40:24.338Z,23.70
2018-07-27T20:42:52.981Z,23.80
2018-07-27T20:45:21.560Z,23.70
2018-07-27T20:47:50.202Z,23.60
2018-07-27T20:50:18.785Z,23.60
2018-07-27T20:52:47.998Z,23.40
2018-07-27T20:55:16.630Z,23.30
2018-07-27T20:57:45.207Z,23.30
2018-07-27T21:00:14.513Z,23.10
2018-07-27T21:02:44.737Z,23.00
2018-07-27T21:05:14.663Z,22.90
2018-07-27T21:07:43.797Z,22.90
2018-07-27T21:10:13.591Z,22.80
2018-07-27T21:12:43.181Z,22.60
2018-07-27T21:15:11.745Z,22.80
2018-07-27T21:17:40.906Z,22.70
2018-07-27T21:20:10.053Z,22.60
2018-07-27T21:22:38.685Z,22.50
2018-07-27T21:25:07.510Z,22.50
2018-07-27T21:27:36.198Z,22.60
2018-07-27T21:30:05.091Z,22.70
2018-07-27T21:32:33.737Z,22.60
2018-07-27T21:35:02.375Z,22.70
2018-07-27T21:37:30.985Z,22.70
2018-07-27T21:39:59.628Z,22.50
2018-07-27T21:42:28.192Z,22.50
2018-07-27T21:44:57.309Z,22.40
2018-07-27T21:47:26.562Z,22.40
2018-07-27T21:52:23.385Z,22.30
2018-07-27T21:54:52.198Z,22.30
2018-07-27T21:57:21.194Z,22.40
2018-07-27T21:59:50.067Z,22.30
2018-07-27T22:02:18.725Z,22.30
2018-07-27T22:04:47.508Z,22.20
2018-07-27T22:07:16.165Z,22.20
2018-07-27T22:09:44.794Z,22.20
2018-07-27T22:12:13.486Z,22.10
2018-07-27T22:14:42.958Z,22.10
2018-07-27T22:17:11.543Z,22.10
2018-07-27T22:19:40.274Z,22.00
2018-07-27T22:22:08.930Z,22.00
2018-07-27T22:24:37.579Z,22.20
2018-07-27T22:27:06.252Z,22.10
2018-07-27T22:29:34.924Z,22.00
2018-07-27T22:32:03.654Z,22.00
2018-07-27T22:34:32.281Z,22.00
2018-07-27T22:37:00.875Z,21.90
2018-07-27T22:39:29.624Z,21.90
2018-07-27T22:41:59.227Z,21.90
2018-07-27T22:46:57.607Z,21.90
2018-07-27T22:49:26.694Z,21.80
2018-07-27T22:51:55.462Z,21.70
2018-07-27T22:54:24.097Z,21.90
2018-07-27T22:56:52.709Z,22.00
2018-07-27T22:59:21.347Z,21.80
2018-07-27T23:01:49.907Z,21.80
2018-07-27T23:04:18.747Z,21.70
2018-07-27T23:06:47.400Z,21.80
2018-07-27T23:09:16.020Z,22.00
2018-07-27T23:11:44.761Z,22.20
2018-07-27T23:14:13.603Z,22.20
2018-07-27T23:16:42.382Z,22.10
2018-07-27T23:19:11.036Z,22.00
2018-07-27T23:21:39.736Z,22.20
2018-07-27T23:24:08.553Z,22.10
2018-07-27T23:26:37.443Z,22.00
2018-07-27T23:29:06.080Z,22.00
2018-07-27T23:31:34.818Z,22.10
2018-07-27T23:34:03.657Z,22.00
2018-07-27T23:36:32.324Z,22.20
2018-07-27T23:39:01.252Z,22.10
2018-07-27T23:41:29.873Z,22.10
2018-07-27T23:43:58.503Z,22.00
2018-07-27T23:46:28.168Z,22.10
2018-07-27T23:48:56.977Z,22.00
2018-07-27T23:51:25.766Z,21.90
2018-07-27T23:53:54.531Z,21.90
2018-07-27T23:56:23.199Z,21.90
2018-07-27T23:58:52.285Z,21.70
